Nelson, New York
Current Conditions -  °F | °C
As of 9:54 AM on Saturday 01 Nov 2014 (Local Time) from KSYR Reporting Station
Light Rain Light Rain  
Wind Chill: 34°   Ceiling: 2100
Heat Index: 39°   Visibility: 6mi
Dew Point: 36°   Wind: 7mph
Humidity: 89%   Direction: 360°N
Pressure: 30.04"   Gusts: NA
Location:  42.9403°N, 75.8232°W
Report Text: KSYR 011354Z 36006KT 6SM -RA BR FEW009 FEW013 OVC021 04/02 A3004 RMK AO2 DZE34RAB34 CIG 010 NW SLP173 P0005 T00390022
Loading
Personal Weather Stations






























Interactive Weather Map
Tropical Storm Tracking
New forecast layout! Learn more

10-Day Weather Forecast

Advertisements
Track Severe Weather on mobile